createdAt,value
2019-05-10T00:01:03.403Z,4.00
2019-05-10T00:03:03.377Z,4.00
2019-05-10T00:04:03.272Z,4.00
2019-05-10T00:05:04.151Z,4.00
2019-05-10T00:06:03.516Z,4.00
2019-05-10T00:07:03.384Z,4.00
2019-05-10T00:08:03.325Z,4.00
2019-05-10T00:09:03.392Z,4.00
2019-05-10T00:10:03.350Z,4.00
2019-05-10T00:11:03.564Z,4.00
2019-05-10T00:13:03.894Z,4.00
2019-05-10T00:14:03.442Z,4.00
2019-05-10T00:15:03.418Z,4.00
2019-05-10T00:16:03.545Z,4.00
2019-05-10T00:18:04.498Z,4.00
2019-05-10T00:20:04.005Z,4.00
2019-05-10T00:21:04.329Z,4.00
2019-05-10T00:22:04.111Z,4.00
2019-05-10T00:23:03.524Z,4.00
2019-05-10T00:24:04.530Z,4.00
2019-05-10T00:26:04.298Z,4.00
2019-05-10T00:27:04.390Z,4.00
2019-05-10T00:28:03.589Z,4.00
2019-05-10T00:30:04.022Z,4.00
2019-05-10T00:31:03.669Z,4.00
2019-05-10T00:33:05.151Z,4.00
2019-05-10T00:34:06.487Z,4.00
2019-05-10T00:35:03.682Z,4.00
2019-05-10T00:36:03.694Z,4.00
2019-05-10T00:37:03.709Z,4.00
2019-05-10T00:38:03.719Z,4.00
2019-05-10T00:39:03.737Z,4.00
2019-05-10T00:40:03.749Z,4.00
2019-05-10T00:41:03.764Z,4.00
2019-05-10T00:42:03.774Z,4.00
2019-05-10T00:43:03.835Z,4.00
2019-05-10T00:44:03.804Z,4.00
2019-05-10T00:45:03.892Z,4.00
2019-05-10T00:46:04.322Z,4.00
2019-05-10T00:47:04.325Z,4.00
2019-05-10T00:48:03.909Z,4.00
2019-05-10T00:49:04.134Z,4.00
2019-05-10T00:50:03.880Z,4.00
2019-05-10T00:51:05.204Z,4.00
2019-05-10T00:52:03.905Z,4.00
2019-05-10T00:53:04.022Z,4.00
2019-05-10T00:54:03.927Z,4.00
2019-05-10T00:55:17.800Z,4.00
2019-05-10T00:56:03.955Z,4.00
2019-05-10T00:57:03.970Z,4.00
2019-05-10T00:58:04.039Z,4.00
2019-05-10T00:59:04.069Z,4.00
2019-05-10T01:00:04.717Z,4.00
2019-05-10T01:01:04.034Z,4.00
2019-05-10T01:02:04.069Z,4.00
2019-05-10T01:03:04.139Z,4.00
2019-05-10T01:04:04.061Z,4.00
2019-05-10T01:05:04.307Z,4.00
2019-05-10T01:06:04.096Z,4.00
2019-05-10T01:07:04.102Z,4.00
2019-05-10T01:08:04.114Z,4.00
2019-05-10T01:09:04.124Z,4.00
2019-05-10T01:10:04.146Z,4.00
2019-05-10T01:11:04.157Z,4.00
2019-05-10T01:12:04.174Z,4.00
2019-05-10T01:13:04.202Z,4.00
2019-05-10T01:14:04.195Z,4.00
2019-05-10T01:15:04.674Z,4.00
2019-05-10T01:16:04.271Z,4.00
2019-05-10T01:17:04.273Z,4.00
2019-05-10T01:18:04.242Z,4.00
2019-05-10T01:20:04.311Z,4.00
2019-05-10T01:22:04.495Z,4.00
2019-05-10T01:23:05.119Z,4.00
2019-05-10T01:24:04.436Z,4.00
2019-05-10T01:25:04.462Z,4.00
2019-05-10T01:26:06.223Z,4.00
2019-05-10T01:27:07.202Z,4.00
2019-05-10T01:29:05.164Z,4.00
2019-05-10T01:31:04.909Z,4.00
2019-05-10T01:32:05.638Z,4.00
2019-05-10T01:33:04.657Z,4.00
2019-05-10T01:34:04.630Z,4.00
2019-05-10T01:35:04.463Z,4.00
2019-05-10T01:36:05.733Z,4.00
2019-05-10T01:37:05.704Z,4.00
2019-05-10T01:38:05.193Z,4.00
2019-05-10T01:39:04.699Z,4.00
2019-05-10T01:40:05.019Z,4.00
2019-05-10T01:41:04.749Z,4.00
2019-05-10T01:43:04.574Z,4.00
2019-05-10T01:44:04.578Z,4.00
2019-05-10T01:45:04.960Z,4.00
2019-05-10T01:46:04.793Z,4.00
2019-05-10T01:47:05.187Z,4.00
2019-05-10T01:49:04.943Z,4.00
2019-05-10T01:52:04.678Z,4.00
2019-05-10T01:53:04.940Z,4.00
2019-05-10T01:54:04.709Z,4.00
2019-05-10T01:55:04.718Z,4.00
2019-05-10T01:57:05.343Z,4.00
2019-05-10T01:58:04.834Z,4.00
2019-05-10T01:59:05.342Z,4.00
2019-05-10T02:02:07.944Z,4.00
2019-05-10T02:03:06.841Z,4.00
2019-05-10T02:05:07.999Z,4.00
2019-05-10T02:06:05.857Z,4.00
2019-05-10T02:08:04.886Z,4.00
2019-05-10T02:10:06.874Z,4.00
2019-05-10T02:11:04.921Z,4.00
2019-05-10T02:12:04.931Z,4.00
2019-05-10T02:15:05.322Z,4.00
2019-05-10T02:16:04.982Z,4.00
2019-05-10T02:17:05.154Z,4.00
2019-05-10T02:18:05.006Z,4.00
2019-05-10T02:19:05.122Z,4.00
2019-05-10T02:20:05.538Z,4.00
2019-05-10T02:22:05.543Z,4.00
2019-05-10T02:23:05.071Z,4.00
2019-05-10T02:24:05.938Z,4.00
2019-05-10T02:25:05.109Z,4.00
2019-05-10T02:26:09.498Z,4.00
2019-05-10T02:27:05.528Z,4.00
2019-05-10T02:29:06.161Z,4.00
2019-05-10T02:30:05.172Z,4.00
2019-05-10T02:31:06.337Z,4.00
2019-05-10T02:32:05.197Z,4.00
2019-05-10T02:33:05.255Z,4.00
2019-05-10T02:34:05.476Z,4.00
2019-05-10T02:35:05.231Z,4.00
2019-05-10T02:36:05.239Z,4.00
2019-05-10T02:37:05.248Z,4.00
2019-05-10T02:38:05.275Z,4.00
2019-05-10T02:39:05.364Z,4.00
2019-05-10T02:40:05.288Z,4.00
2019-05-10T02:41:05.321Z,4.00
2019-05-10T02:42:05.312Z,4.00
2019-05-10T02:43:05.328Z,4.00
2019-05-10T02:44:05.347Z,4.00
2019-05-10T02:45:05.412Z,4.00
2019-05-10T02:46:05.382Z,4.00
2019-05-10T02:48:06.394Z,4.00
2019-05-10T02:50:05.919Z,4.00
2019-05-10T02:51:06.225Z,4.00
2019-05-10T02:52:05.463Z,4.00
2019-05-10T02:53:05.493Z,4.00
2019-05-10T02:55:05.728Z,4.00
2019-05-10T02:57:05.585Z,4.00
2019-05-10T02:59:06.318Z,4.00
2019-05-10T03:00:05.960Z,4.00
2019-05-10T03:03:06.504Z,4.00
2019-05-10T03:04:07.032Z,4.00
2019-05-10T03:06:05.725Z,4.00
2019-05-10T03:07:05.637Z,4.00
2019-05-10T03:08:05.640Z,4.00
2019-05-10T03:09:05.655Z,4.00
2019-05-10T03:10:05.675Z,4.00
2019-05-10T03:11:05.679Z,4.00
2019-05-10T03:12:05.843Z,4.00
2019-05-10T03:14:05.723Z,4.00
2019-05-10T03:15:05.731Z,4.00
2019-05-10T03:16:05.761Z,4.00
2019-05-10T03:17:05.791Z,4.00
2019-05-10T03:18:05.775Z,4.00
2019-05-10T03:19:05.802Z,4.00
2019-05-10T03:20:05.850Z,4.00
2019-05-10T03:21:05.856Z,4.00
2019-05-10T03:22:05.933Z,4.00
2019-05-10T03:23:05.831Z,0.00
2019-05-10T03:24:05.845Z,4.00
2019-05-10T03:25:06.361Z,4.00
2019-05-10T03:26:06.967Z,4.00
2019-05-10T03:27:06.497Z,4.00
2019-05-10T03:28:05.932Z,4.00
2019-05-10T03:29:05.911Z,4.00
2019-05-10T03:30:05.933Z,8.00
2019-05-10T03:31:06.147Z,4.00
2019-05-10T03:32:06.354Z,4.00
2019-05-10T03:33:07.886Z,8.00
2019-05-10T03:34:06.748Z,8.00
2019-05-10T03:36:06.830Z,8.00
2019-05-10T03:40:07.010Z,12.00
2019-05-10T03:41:06.181Z,12.00
2019-05-10T03:42:06.074Z,12.00
2019-05-10T03:43:06.129Z,12.00
2019-05-10T03:44:06.094Z,12.00
2019-05-10T03:45:06.154Z,12.00
2019-05-10T03:47:06.445Z,8.00
2019-05-10T03:48:06.696Z,8.00
2019-05-10T03:49:06.155Z,12.00
2019-05-10T03:50:06.168Z,12.00
2019-05-10T03:51:06.179Z,12.00
2019-05-10T03:52:06.195Z,12.00
2019-05-10T03:53:06.221Z,12.00
2019-05-10T03:54:06.671Z,12.00
2019-05-10T03:55:06.641Z,16.00
2019-05-10T03:56:07.020Z,16.00
2019-05-10T03:57:13.596Z,24.00
2019-05-10T03:58:07.333Z,24.00
2019-05-10T04:05:06.372Z,40.00
2019-05-10T04:06:06.490Z,40.00
2019-05-10T04:09:07.103Z,32.00
2019-05-10T04:10:07.003Z,28.00
2019-05-10T04:11:06.427Z,28.00
2019-05-10T04:12:06.445Z,32.00
2019-05-10T04:13:06.653Z,32.00
2019-05-10T04:14:06.471Z,40.00
2019-05-10T04:15:06.481Z,48.00
2019-05-10T04:16:06.503Z,56.00
2019-05-10T04:17:07.180Z,64.00
2019-05-10T04:18:07.301Z,64.00
2019-05-10T04:19:06.537Z,56.00
2019-05-10T04:20:07.170Z,48.00
2019-05-10T04:21:06.559Z,44.00
2019-05-10T04:24:07.146Z,64.00
2019-05-10T04:25:06.610Z,68.00
2019-05-10T04:26:06.706Z,68.00
2019-05-10T04:27:06.642Z,68.00
2019-05-10T04:28:06.653Z,64.00
2019-05-10T04:29:07.153Z,64.00
2019-05-10T04:30:08.110Z,60.00
2019-05-10T04:31:07.999Z,52.00
2019-05-10T04:32:06.738Z,52.00
2019-05-10T04:36:12.022Z,52.00
2019-05-10T04:37:08.360Z,52.00
2019-05-10T04:38:06.903Z,56.00
2019-05-10T04:39:07.613Z,60.00
2019-05-10T04:40:06.792Z,76.00
2019-05-10T04:41:07.577Z,96.00
2019-05-10T04:42:06.823Z,104.00
2019-05-10T04:44:06.922Z,120.00
2019-05-10T04:46:07.929Z,148.00
2019-05-10T04:47:07.444Z,164.00
2019-05-10T04:48:06.982Z,152.00
2019-05-10T04:49:06.983Z,164.00
2019-05-10T04:51:06.948Z,164.00
2019-05-10T04:52:06.963Z,168.00
2019-05-10T04:55:07.100Z,220.00
2019-05-10T04:56:07.666Z,204.00
2019-05-10T04:57:07.599Z,192.00
2019-05-10T04:58:07.129Z,172.00
2019-05-10T05:01:07.059Z,112.00
2019-05-10T05:02:07.108Z,100.00
2019-05-10T05:03:08.241Z,80.00
2019-05-10T05:05:07.131Z,64.00
2019-05-10T05:06:07.124Z,60.00
2019-05-10T05:07:07.188Z,64.00
2019-05-10T05:08:07.741Z,80.00
2019-05-10T05:09:08.523Z,96.00
2019-05-10T05:10:07.421Z,104.00
2019-05-10T05:12:07.197Z,96.00
2019-05-10T05:14:09.590Z,132.00
2019-05-10T05:17:08.133Z,340.00
2019-05-10T05:18:07.356Z,340.00
2019-05-10T05:19:07.286Z,368.00
2019-05-10T05:20:07.402Z,448.00
2019-05-10T05:21:07.376Z,436.00
2019-05-10T05:23:07.336Z,444.00
2019-05-10T05:24:07.621Z,468.00
2019-05-10T05:26:08.305Z,316.00
2019-05-10T05:27:07.693Z,276.00
2019-05-10T05:28:08.566Z,244.00
2019-05-10T05:29:07.944Z,260.00
2019-05-10T05:31:07.477Z,324.00
2019-05-10T05:32:07.567Z,300.00
2019-05-10T05:33:07.487Z,336.00
2019-05-10T05:34:07.486Z,348.00
2019-05-10T05:35:07.619Z,264.00
2019-05-10T05:36:08.300Z,268.00
2019-05-10T05:37:07.546Z,224.00
2019-05-10T05:38:07.559Z,204.00
2019-05-10T05:40:07.935Z,256.00
2019-05-10T05:41:08.943Z,256.00
2019-05-10T05:42:07.745Z,224.00
2019-05-10T05:43:09.843Z,272.00
2019-05-10T05:44:08.445Z,368.00
2019-05-10T05:45:07.759Z,364.00
2019-05-10T05:46:07.652Z,336.00
2019-05-10T05:48:08.273Z,204.00
2019-05-10T05:50:07.789Z,200.00
2019-05-10T05:51:07.760Z,280.00
2019-05-10T05:52:08.155Z,284.00
2019-05-10T05:54:09.198Z,260.00
2019-05-10T05:55:07.970Z,304.00
2019-05-10T05:56:12.706Z,396.00
2019-05-10T05:57:07.785Z,468.00
2019-05-10T06:00:08.132Z,572.00
2019-05-10T06:02:09.587Z,764.00
2019-05-10T06:03:08.059Z,824.00
2019-05-10T06:04:12.220Z,812.00
2019-05-10T06:05:07.845Z,760.00
2019-05-10T06:06:21.782Z,748.00
2019-05-10T06:07:08.822Z,828.00
2019-05-10T06:08:21.398Z,964.00
2019-05-10T06:09:08.615Z,1040.00
2019-05-10T06:10:10.354Z,1064.00
2019-05-10T06:12:12.561Z,1008.00
2019-05-10T06:13:07.969Z,960.00
2019-05-10T06:14:10.863Z,980.00
2019-05-10T06:15:08.403Z,1012.00
2019-05-10T06:17:08.669Z,1072.00
2019-05-10T06:18:09.681Z,1144.00
2019-05-10T06:20:08.592Z,1216.00
2019-05-10T06:21:08.351Z,1176.00
2019-05-10T06:22:08.063Z,1212.00
2019-05-10T06:23:08.077Z,1092.00
2019-05-10T06:24:13.336Z,940.00
2019-05-10T06:25:08.131Z,936.00
2019-05-10T06:26:21.416Z,896.00
2019-05-10T06:27:08.114Z,848.00
2019-05-10T06:28:25.361Z,792.00
2019-05-10T06:29:16.381Z,728.00
2019-05-10T06:30:08.170Z,668.00
2019-05-10T06:31:08.233Z,604.00
2019-05-10T06:32:08.186Z,532.00
2019-05-10T06:33:12.704Z,476.00
2019-05-10T06:34:08.344Z,488.00
2019-05-10T06:35:08.238Z,480.00
2019-05-10T06:36:09.796Z,460.00
2019-05-10T06:37:08.323Z,484.00
2019-05-10T06:38:08.263Z,488.00
2019-05-10T06:39:08.269Z,536.00
2019-05-10T06:40:08.282Z,620.00
2019-05-10T06:41:10.153Z,720.00
2019-05-10T06:42:08.322Z,776.00
2019-05-10T06:43:13.629Z,720.00
2019-05-10T06:44:08.341Z,728.00
2019-05-10T06:45:14.306Z,740.00
2019-05-10T06:46:08.367Z,784.00
2019-05-10T06:47:11.181Z,864.00
2019-05-10T06:48:08.379Z,1008.00
2019-05-10T06:49:10.901Z,1080.00
2019-05-10T06:50:08.501Z,1148.00
2019-05-10T06:51:09.343Z,1312.00
2019-05-10T06:52:08.450Z,1556.00
2019-05-10T06:53:10.782Z,1780.00
2019-05-10T06:54:08.517Z,1940.00
2019-05-10T06:55:08.462Z,2048.00
2019-05-10T06:56:08.479Z,2012.00
2019-05-10T06:57:11.212Z,1808.00
2019-05-10T06:58:08.499Z,1556.00
2019-05-10T06:59:13.651Z,1364.00
2019-05-10T07:00:08.522Z,1288.00
2019-05-10T07:01:08.542Z,1272.00
2019-05-10T07:02:08.550Z,1336.00
2019-05-10T07:03:08.567Z,1456.00
2019-05-10T07:04:08.574Z,1776.00
2019-05-10T07:05:08.587Z,2296.00
2019-05-10T07:06:08.597Z,3132.00
2019-05-10T07:07:10.279Z,3360.00
2019-05-10T07:08:16.362Z,3080.00
2019-05-10T07:09:08.642Z,3172.00
2019-05-10T07:10:18.251Z,2884.00
2019-05-10T07:11:08.664Z,3024.00
2019-05-10T07:12:09.452Z,3100.00
2019-05-10T07:13:08.750Z,2980.00
2019-05-10T07:14:08.710Z,3624.00
2019-05-10T07:15:08.739Z,3444.00
2019-05-10T07:16:08.738Z,2676.00
2019-05-10T07:17:08.746Z,3216.00
2019-05-10T07:18:08.754Z,2160.00
2019-05-10T07:19:08.766Z,1984.00
2019-05-10T07:20:08.787Z,1840.00
2019-05-10T07:21:08.836Z,1844.00
2019-05-10T07:22:08.805Z,1996.00
2019-05-10T07:23:08.841Z,2212.00
2019-05-10T07:24:08.834Z,2360.00
2019-05-10T07:25:08.848Z,2448.00
2019-05-10T07:26:09.936Z,2524.00
2019-05-10T07:27:08.871Z,2572.00
2019-05-10T07:28:09.527Z,2580.00
2019-05-10T07:29:08.898Z,2704.00
2019-05-10T07:30:08.910Z,2684.00
2019-05-10T07:31:08.981Z,2664.00
2019-05-10T07:32:08.939Z,2700.00
2019-05-10T07:33:08.955Z,3052.00
2019-05-10T07:34:09.771Z,2852.00
2019-05-10T07:35:08.978Z,2776.00
2019-05-10T07:36:14.660Z,2792.00
2019-05-10T07:37:09.003Z,2904.00
2019-05-10T07:38:09.017Z,3744.00
2019-05-10T07:39:10.761Z,2960.00
2019-05-10T07:40:09.043Z,2932.00
2019-05-10T07:41:09.314Z,3036.00
2019-05-10T07:42:09.219Z,3036.00
2019-05-10T07:43:09.081Z,3084.00
2019-05-10T07:44:10.609Z,3072.00
2019-05-10T07:45:09.125Z,3128.00
2019-05-10T07:46:09.188Z,3064.00
2019-05-10T07:47:09.133Z,2988.00
2019-05-10T07:48:10.409Z,2944.00
2019-05-10T07:49:09.159Z,2836.00
2019-05-10T07:50:10.113Z,2752.00
2019-05-10T07:51:09.186Z,2648.00
2019-05-10T07:52:09.197Z,2600.00
2019-05-10T07:53:09.215Z,2584.00
2019-05-10T07:54:09.229Z,2568.00
2019-05-10T07:55:10.628Z,2616.00
2019-05-10T07:56:09.306Z,2652.00
2019-05-10T07:57:09.263Z,2684.00
2019-05-10T07:58:09.277Z,2732.00
2019-05-10T07:59:09.292Z,2896.00
2019-05-10T08:00:09.311Z,3104.00
2019-05-10T08:01:09.319Z,3284.00
2019-05-10T08:02:12.922Z,3416.00
2019-05-10T08:03:16.562Z,3496.00
2019-05-10T08:04:12.775Z,3440.00
2019-05-10T08:05:13.747Z,3300.00
2019-05-10T08:06:09.399Z,3048.00
2019-05-10T08:07:10.470Z,2736.00
2019-05-10T08:08:09.672Z,2444.00
2019-05-10T08:09:09.779Z,2268.00
2019-05-10T08:10:09.445Z,2112.00
2019-05-10T08:11:09.457Z,2024.00
2019-05-10T08:12:12.857Z,1892.00
2019-05-10T08:13:09.483Z,1716.00
2019-05-10T08:14:11.273Z,1596.00
2019-05-10T08:15:09.517Z,1424.00
2019-05-10T08:16:11.784Z,1252.00
2019-05-10T08:17:09.549Z,1136.00
2019-05-10T08:18:09.941Z,1040.00
2019-05-10T08:19:09.559Z,904.00
2019-05-10T08:20:25.619Z,800.00
2019-05-10T08:21:20.851Z,752.00
2019-05-10T08:22:09.609Z,748.00
2019-05-10T08:23:09.618Z,748.00
2019-05-10T08:24:16.090Z,796.00
2019-05-10T08:25:09.650Z,844.00
2019-05-10T08:26:11.094Z,880.00
2019-05-10T08:27:13.989Z,852.00
2019-05-10T08:28:09.689Z,820.00
2019-05-10T08:29:13.644Z,812.00
2019-05-10T08:30:22.579Z,824.00
2019-05-10T08:31:12.192Z,832.00
2019-05-10T08:32:09.735Z,820.00
2019-05-10T08:33:11.985Z,848.00
2019-05-10T08:34:11.707Z,928.00
2019-05-10T08:35:16.385Z,1004.00
2019-05-10T08:36:11.984Z,1052.00
2019-05-10T08:37:09.804Z,1100.00
2019-05-10T08:38:09.812Z,1156.00
2019-05-10T08:39:13.096Z,1228.00
2019-05-10T08:40:09.841Z,1304.00
2019-05-10T08:41:14.780Z,1380.00
2019-05-10T08:42:30.512Z,1456.00
2019-05-10T08:43:15.496Z,1532.00
2019-05-10T08:44:16.684Z,1588.00
2019-05-10T08:45:12.385Z,1628.00
2019-05-10T08:46:11.972Z,1676.00
2019-05-10T08:47:16.175Z,1752.00
2019-05-10T08:48:09.937Z,1840.00
2019-05-10T08:49:09.965Z,1936.00
2019-05-10T08:50:22.277Z,2056.00
2019-05-10T08:51:12.323Z,2196.00
2019-05-10T08:52:12.055Z,2392.00
2019-05-10T08:53:16.061Z,2640.00
2019-05-10T08:54:12.049Z,2848.00
2019-05-10T08:55:12.125Z,2968.00
2019-05-10T08:56:13.966Z,3032.00
2019-05-10T08:57:17.907Z,3140.00
2019-05-10T08:58:12.243Z,3220.00
2019-05-10T08:59:16.357Z,3304.00
2019-05-10T09:00:10.095Z,3388.00
2019-05-10T09:01:20.421Z,3464.00
2019-05-10T09:02:12.629Z,3520.00
2019-05-10T09:03:17.865Z,3600.00
2019-05-10T09:04:11.684Z,3704.00
2019-05-10T09:05:12.271Z,3864.00
2019-05-10T09:06:14.299Z,3888.00
2019-05-10T09:07:11.974Z,3956.00
2019-05-10T09:08:11.593Z,4000.00
2019-05-10T09:09:12.361Z,3928.00
2019-05-10T09:10:12.572Z,3708.00
2019-05-10T09:11:10.243Z,3440.00
2019-05-10T09:12:12.231Z,3092.00
2019-05-10T09:13:12.653Z,2832.00
2019-05-10T09:14:12.303Z,2580.00
2019-05-10T09:15:13.322Z,2428.00
2019-05-10T09:16:13.340Z,2332.00
2019-05-10T09:17:14.792Z,2556.00
2019-05-10T09:18:12.590Z,3128.00
2019-05-10T09:19:12.327Z,3656.00
2019-05-10T09:20:12.015Z,3940.00
2019-05-10T09:21:13.603Z,4048.00
2019-05-10T09:22:12.361Z,4116.00
2019-05-10T09:23:15.360Z,4008.00
2019-05-10T09:25:12.632Z,3756.00
2019-05-10T09:26:16.183Z,3688.00
2019-05-10T09:27:12.782Z,3704.00
2019-05-10T09:28:15.248Z,3788.00
2019-05-10T09:29:12.155Z,3912.00
2019-05-10T09:30:14.031Z,3972.00
2019-05-10T09:31:18.591Z,4008.00
2019-05-10T09:32:12.585Z,4064.00
2019-05-10T09:33:14.148Z,4112.00
2019-05-10T09:34:12.266Z,4256.00
2019-05-10T09:35:12.526Z,4316.00
2019-05-10T09:36:12.525Z,4368.00
2019-05-10T09:37:16.030Z,4420.00
2019-05-10T09:38:12.566Z,4476.00
2019-05-10T09:39:17.619Z,4524.00
2019-05-10T09:40:13.371Z,4492.00
2019-05-10T09:41:11.979Z,4420.00
2019-05-10T09:42:24.790Z,4296.00
2019-05-10T09:43:12.457Z,4196.00
2019-05-10T09:44:12.919Z,4056.00
2019-05-10T09:45:12.806Z,3976.00
2019-05-10T09:46:11.492Z,3848.00
2019-05-10T09:47:12.073Z,3896.00
2019-05-10T09:48:12.145Z,3928.00
2019-05-10T09:49:15.759Z,3948.00
2019-05-10T09:50:12.637Z,4012.00
2019-05-10T09:51:13.474Z,4176.00
2019-05-10T09:52:12.632Z,4304.00
2019-05-10T09:53:13.544Z,4376.00
2019-05-10T09:54:10.870Z,4388.00
2019-05-10T09:55:14.847Z,4352.00
2019-05-10T09:56:10.855Z,4260.00
2019-05-10T09:57:10.871Z,4100.00
2019-05-10T09:58:10.885Z,4032.00
2019-05-10T09:59:10.896Z,3980.00
2019-05-10T10:00:10.921Z,3860.00
2019-05-10T10:01:17.739Z,3796.00
2019-05-10T10:02:15.658Z,3808.00
2019-05-10T10:03:12.838Z,3816.00
2019-05-10T10:04:10.967Z,3752.00
2019-05-10T10:05:10.979Z,3616.00
2019-05-10T10:06:11.530Z,3468.00
2019-05-10T10:07:11.006Z,3352.00
2019-05-10T10:08:11.206Z,3260.00
2019-05-10T10:09:11.283Z,3152.00
2019-05-10T10:10:12.695Z,3008.00
2019-05-10T10:11:15.758Z,2876.00
2019-05-10T10:12:11.073Z,2732.00
2019-05-10T10:13:14.046Z,2564.00
2019-05-10T10:14:11.105Z,2436.00
2019-05-10T10:15:18.795Z,2344.00
2019-05-10T10:16:14.806Z,2276.00
2019-05-10T10:17:11.144Z,2192.00
2019-05-10T10:18:12.571Z,2116.00
2019-05-10T10:19:11.173Z,2212.00
2019-05-10T10:20:11.195Z,2412.00
2019-05-10T10:21:13.258Z,2576.00
2019-05-10T10:22:13.137Z,2704.00
2019-05-10T10:23:11.231Z,2860.00
2019-05-10T10:24:15.730Z,2892.00
2019-05-10T10:25:11.257Z,2940.00
2019-05-10T10:26:12.683Z,3004.00
2019-05-10T10:27:11.290Z,2964.00
2019-05-10T10:28:17.086Z,2792.00
2019-05-10T10:29:11.314Z,2632.00
2019-05-10T10:30:17.813Z,2532.00
2019-05-10T10:31:25.059Z,2196.00
2019-05-10T10:32:11.364Z,2016.00
2019-05-10T10:33:16.017Z,1920.00
2019-05-10T10:34:11.397Z,1864.00
2019-05-10T10:35:13.202Z,1832.00
2019-05-10T10:36:11.408Z,1788.00
2019-05-10T10:37:14.556Z,1776.00
2019-05-10T10:38:11.446Z,1812.00
2019-05-10T10:39:11.445Z,1924.00
2019-05-10T10:40:14.966Z,2068.00
2019-05-10T10:41:11.480Z,2292.00
2019-05-10T10:42:13.241Z,2556.00
2019-05-10T10:43:11.499Z,2856.00
2019-05-10T10:44:11.528Z,3188.00
2019-05-10T10:45:11.532Z,3388.00
2019-05-10T10:46:12.619Z,3380.00
2019-05-10T10:47:11.567Z,3372.00
2019-05-10T10:48:13.012Z,3276.00
2019-05-10T10:49:14.443Z,3184.00
2019-05-10T10:50:13.619Z,3180.00
2019-05-10T10:51:11.627Z,3356.00
2019-05-10T10:52:13.472Z,3436.00
2019-05-10T10:53:11.650Z,3380.00
2019-05-10T10:54:11.663Z,3352.00
2019-05-10T10:55:13.344Z,3312.00
2019-05-10T10:56:11.682Z,3188.00
2019-05-10T10:57:11.694Z,3108.00
2019-05-10T10:58:11.711Z,3024.00
2019-05-10T10:59:11.724Z,3004.00
2019-05-10T11:00:11.746Z,2944.00
2019-05-10T11:01:23.611Z,2876.00
2019-05-10T11:02:34.113Z,2676.00
2019-05-10T11:03:11.821Z,2432.00
2019-05-10T11:04:11.809Z,2264.00
2019-05-10T11:05:11.834Z,2132.00
2019-05-10T11:06:15.228Z,2156.00
2019-05-10T11:07:11.863Z,2240.00
2019-05-10T11:08:11.879Z,2216.00
2019-05-10T11:09:11.871Z,2060.00
2019-05-10T11:10:18.570Z,1764.00
2019-05-10T11:11:11.895Z,1636.00
2019-05-10T11:12:14.649Z,1648.00
2019-05-10T11:13:18.714Z,1808.00
2019-05-10T11:14:11.930Z,2124.00
2019-05-10T11:15:16.484Z,2316.00
2019-05-10T11:16:15.751Z,2340.00
2019-05-10T11:17:11.977Z,2408.00
2019-05-10T11:18:11.992Z,2604.00
2019-05-10T11:19:15.479Z,2876.00
2019-05-10T11:20:12.013Z,3320.00
2019-05-10T11:21:12.037Z,3944.00
2019-05-10T11:22:12.044Z,4532.00
2019-05-10T11:23:12.063Z,5088.00
2019-05-10T11:24:17.999Z,5572.00
2019-05-10T11:25:12.822Z,5588.00
2019-05-10T11:26:12.101Z,5800.00
2019-05-10T11:27:15.838Z,5396.00
2019-05-10T11:28:12.179Z,5380.00
2019-05-10T11:29:13.994Z,5152.00
2019-05-10T11:30:12.705Z,4628.00
2019-05-10T11:31:12.320Z,4188.00
2019-05-10T11:32:16.667Z,3700.00
2019-05-10T11:33:26.082Z,3248.00
2019-05-10T11:34:12.417Z,2944.00
2019-05-10T11:35:22.704Z,2728.00
2019-05-10T11:36:12.752Z,2432.00
2019-05-10T11:37:12.273Z,2296.00
2019-05-10T11:38:16.094Z,2344.00
2019-05-10T11:39:25.317Z,2512.00
2019-05-10T11:40:12.305Z,2676.00
2019-05-10T11:41:20.682Z,3020.00
2019-05-10T11:42:15.410Z,4108.00
2019-05-10T11:43:12.361Z,3712.00
2019-05-10T11:44:12.498Z,3788.00
2019-05-10T11:45:12.393Z,3800.00
2019-05-10T11:46:12.396Z,3704.00
2019-05-10T11:47:23.454Z,3692.00
2019-05-10T11:48:12.405Z,3712.00
2019-05-10T11:49:12.415Z,3788.00
2019-05-10T11:50:27.763Z,3932.00
2019-05-10T11:51:17.329Z,4116.00
2019-05-10T11:52:13.268Z,4448.00
2019-05-10T11:53:17.026Z,5060.00
2019-05-10T11:54:12.502Z,5504.00
2019-05-10T11:55:12.525Z,5860.00
2019-05-10T11:56:14.055Z,7132.00
2019-05-10T11:57:13.766Z,6648.00
2019-05-10T11:58:13.390Z,7120.00
2019-05-10T11:59:16.423Z,5020.00
2019-05-10T12:00:24.644Z,4872.00
2019-05-10T12:01:17.348Z,4756.00
2019-05-10T12:02:33.818Z,4728.00
2019-05-10T12:03:18.327Z,4652.00
2019-05-10T12:04:22.467Z,4404.00
2019-05-10T12:05:19.810Z,4276.00
2019-05-10T12:06:12.655Z,4448.00
2019-05-10T12:07:13.143Z,4836.00
2019-05-10T12:08:13.240Z,5100.00
2019-05-10T12:09:12.717Z,5348.00
2019-05-10T12:11:27.709Z,5960.00
2019-05-10T12:12:12.763Z,6228.00
2019-05-10T12:13:19.364Z,6328.00
2019-05-10T12:14:13.892Z,6436.00
2019-05-10T12:15:13.882Z,6524.00
2019-05-10T12:16:16.873Z,6700.00
2019-05-10T12:17:14.264Z,6704.00
2019-05-10T12:18:14.699Z,6808.00
2019-05-10T12:19:19.710Z,6692.00
2019-05-10T12:20:16.921Z,6424.00
2019-05-10T12:21:12.874Z,6148.00
2019-05-10T12:22:15.830Z,5768.00
2019-05-10T12:23:21.953Z,5632.00
2019-05-10T12:25:36.092Z,5452.00
2019-05-10T12:26:05.676Z,5632.00
2019-05-10T12:26:17.711Z,5660.00
2019-05-10T12:27:14.078Z,5260.00
2019-05-10T12:27:22.002Z,5016.00
2019-05-10T12:28:15.371Z,4624.00
2019-05-10T12:29:16.996Z,4304.00
2019-05-10T12:30:15.931Z,3984.00
2019-05-10T12:31:17.047Z,3588.00
2019-05-10T12:32:13.042Z,3208.00
2019-05-10T12:33:24.292Z,2940.00
2019-05-10T12:34:14.542Z,2664.00
2019-05-10T12:35:13.081Z,2576.00
2019-05-10T12:36:23.448Z,2544.00
2019-05-10T12:37:13.125Z,2476.00
2019-05-10T12:38:13.135Z,2316.00
2019-05-10T12:39:13.144Z,2192.00
2019-05-10T12:40:15.070Z,2096.00
2019-05-10T12:41:13.182Z,1984.00
2019-05-10T12:42:14.389Z,1848.00
2019-05-10T12:43:13.192Z,1724.00
2019-05-10T12:44:13.211Z,1612.00
2019-05-10T12:45:13.233Z,1524.00
2019-05-10T12:46:13.249Z,1472.00
2019-05-10T12:47:13.262Z,1424.00
2019-05-10T12:48:13.269Z,1416.00
2019-05-10T12:49:13.279Z,1464.00
2019-05-10T12:50:13.299Z,1596.00
2019-05-10T12:51:16.337Z,1800.00
2019-05-10T12:52:14.009Z,1920.00
2019-05-10T12:53:18.047Z,2064.00
2019-05-10T12:54:13.348Z,2160.00
2019-05-10T12:55:13.362Z,2280.00
2019-05-10T12:56:13.392Z,2416.00
2019-05-10T12:57:13.392Z,2536.00
2019-05-10T12:58:13.406Z,2692.00
2019-05-10T12:59:13.452Z,2888.00
2019-05-10T13:00:15.649Z,3068.00
2019-05-10T13:01:13.445Z,3300.00
2019-05-10T13:02:13.485Z,3552.00
2019-05-10T13:03:13.751Z,3756.00
2019-05-10T13:04:16.703Z,3896.00
2019-05-10T13:05:15.643Z,3972.00
2019-05-10T13:06:13.544Z,3944.00
2019-05-10T13:07:13.551Z,3828.00
2019-05-10T13:08:13.551Z,3620.00
2019-05-10T13:09:13.556Z,3360.00
2019-05-10T13:10:13.648Z,3048.00
2019-05-10T13:11:13.686Z,2812.00
2019-05-10T13:12:13.625Z,2620.00
2019-05-10T13:13:17.565Z,2472.00
2019-05-10T13:14:13.633Z,2384.00
2019-05-10T13:15:13.653Z,2360.00
2019-05-10T13:16:13.666Z,2356.00
2019-05-10T13:17:16.903Z,2332.00
2019-05-10T13:18:13.680Z,2348.00
2019-05-10T13:19:19.971Z,2300.00
2019-05-10T13:20:13.710Z,2200.00
2019-05-10T13:21:20.654Z,2044.00
2019-05-10T13:22:13.750Z,1952.00
2019-05-10T13:23:15.979Z,1912.00
2019-05-10T13:24:13.765Z,1904.00
2019-05-10T13:25:13.786Z,1964.00
2019-05-10T13:26:13.794Z,2020.00
2019-05-10T13:27:13.806Z,1932.00
2019-05-10T13:28:13.827Z,1976.00
2019-05-10T13:29:13.836Z,2076.00
2019-05-10T13:30:13.852Z,2280.00
2019-05-10T13:31:15.232Z,2596.00
2019-05-10T13:32:14.735Z,2960.00
2019-05-10T13:33:27.836Z,3144.00
2019-05-10T13:34:13.904Z,3420.00
2019-05-10T13:35:13.916Z,3820.00
2019-05-10T13:36:13.931Z,4244.00
2019-05-10T13:37:22.849Z,4772.00
2019-05-10T13:38:13.964Z,5460.00
2019-05-10T13:39:19.098Z,6352.00
2019-05-10T13:40:13.985Z,7060.00
2019-05-10T13:41:17.864Z,7236.00
2019-05-10T13:42:14.020Z,7416.00
2019-05-10T13:43:17.313Z,8680.00
2019-05-10T13:44:14.044Z,18560.00
2019-05-10T13:45:14.149Z,18304.00
2019-05-10T13:46:14.238Z,8048.00
2019-05-10T13:47:14.084Z,8464.00